Time;durP1;ratioP1;P1;durP2;ratioP2;P2;SDS_P1;SDS_P2;PMS_P1;PMS_P2;Temp;Humidity;BMP_temperature;BMP_pressure;BME280_temperature;BME280_humidity;BME280_pressure;Samples;Min_cycle;Max_cycle;Signal;HPM_P1;HPM_P2
2022/07/17 00:00:28;;;;;;;4.95;3.40;;;;;;;16.27;79.13;100917.67;1858827;77;20928;-90
2022/07/17 00:02:55;;;;;;;7.72;4.45;;;;;;;16.24;79.15;100919.25;1858715;77;21426;-89
2022/07/17 00:05:22;;;;;;;6.22;4.55;;;;;;;16.20;79.14;100920.45;1858681;77;21798;-89
2022/07/17 00:07:49;;;;;;;8.15;4.15;;;;;;;16.15;79.18;100922.14;1858708;77;20916;-89
2022/07/17 00:10:16;;;;;;;4.30;3.90;;;;;;;16.10;79.10;100925.15;1858834;77;20897;-89
2022/07/17 00:12:44;;;;;;;4.72;4.30;;;;;;;16.06;79.53;100921.05;1858820;76;20889;-89
2022/07/17 00:15:12;;;;;;;6.95;4.10;;;;;;;16.05;79.77;100927.78;1858740;77;20866;-89
2022/07/17 00:17:41;;;;;;;6.78;4.53;;;;;;;16.01;79.97;100921.91;1858639;77;20920;-90
2022/07/17 00:20:08;;;;;;;5.58;3.90;;;;;;;16.00;80.13;100925.50;1858964;77;20862;-89
2022/07/17 00:22:35;;;;;;;6.33;4.35;;;;;;;15.99;80.16;100923.83;1859470;77;21374;-90
2022/07/17 00:25:04;;;;;;;5.15;3.80;;;;;;;15.97;80.04;100927.07;1858774;77;20960;-89
2022/07/17 00:27:32;;;;;;;7.12;3.92;;;;;;;15.95;79.98;100923.70;1859204;77;20917;-90
2022/07/17 00:30:00;;;;;;;8.18;4.55;;;;;;;15.93;80.05;100921.66;1858921;77;21215;-89
2022/07/17 00:32:27;;;;;;;4.47;3.85;;;;;;;15.91;80.16;100919.12;1858870;77;20897;-89
2022/07/17 00:34:54;;;;;;;4.62;4.05;;;;;;;15.90;80.37;100919.26;1858880;77;20890;-90
2022/07/17 00:37:21;;;;;;;5.80;3.12;;;;;;;15.90;80.71;100916.13;1858706;77;20964;-89
2022/07/17 00:39:49;;;;;;;4.22;3.45;;;;;;;15.89;80.71;100914.42;1858641;77;20870;-90
2022/07/17 00:42:17;;;;;;;5.37;4.25;;;;;;;15.92;80.80;100906.76;1858857;77;21112;-90
2022/07/17 00:44:44;;;;;;;5.37;4.87;;;;;;;15.92;80.76;100900.98;1858859;77;21366;-90
2022/07/17 00:47:15;;;;;;;4.08;3.67;;;;;;;15.92;80.69;100897.02;1858910;77;20929;-89
2022/07/17 00:49:42;;;;;;;5.90;4.12;;;;;;;15.93;80.42;100902.65;1858828;77;20874;-89
2022/07/17 00:52:10;;;;;;;6.12;4.67;;;;;;;15.91;80.12;100903.25;1858892;77;21300;-90
2022/07/17 00:54:41;;;;;;;6.40;4.90;;;;;;;15.88;80.02;100900.02;1858919;77;21215;-89
2022/07/17 00:57:11;;;;;;;6.30;4.58;;;;;;;15.85;79.69;100901.11;1858611;77;20877;-89
2022/07/17 00:59:39;;;;;;;3.87;3.58;;;;;;;15.80;79.61;100899.27;1859156;77;20893;-88
2022/07/17 01:02:07;;;;;;;3.95;3.45;;;;;;;15.72;79.86;100899.88;1861730;76;20894;-88
2022/07/17 01:04:34;;;;;;;6.97;3.50;;;;;;;15.65;80.09;100894.68;1862000;77;20901;-88
2022/07/17 01:07:01;;;;;;;4.00;3.60;;;;;;;15.65;80.17;100903.06;1860151;76;21216;-89
2022/07/17 01:09:30;;;;;;;7.05;4.60;;;;;;;15.61;80.25;100901.64;1828746;77;20830;-90
2022/07/17 01:11:57;;;;;;;5.37;3.22;;;;;;;15.58;80.31;100900.54;1859333;77;20912;-89
2022/07/17 01:14:25;;;;;;;4.35;3.95;;;;;;;15.50;80.41;100905.94;1858865;76;20909;-90
2022/07/17 01:16:52;;;;;;;6.97;4.03;;;;;;;15.50;80.41;100905.94;1858748;76;21102;-89
2022/07/17 01:19:20;;;;;;;3.47;3.17;;;;;;;15.46;80.35;100901.84;1858907;77;21115;-90
2022/07/17 01:21:49;;;;;;;4.25;3.15;;;;;;;15.46;80.45;100899.68;1859066;77;21521;-88
2022/07/17 01:24:16;;;;;;;4.55;3.40;;;;;;;15.45;80.81;100890.05;1859692;77;21051;-88
2022/07/17 01:26:44;;;;;;;3.77;3.37;;;;;;;15.44;81.22;100885.74;1859648;77;20929;-89
2022/07/17 01:29:12;;;;;;;5.75;3.35;;;;;;;15.42;80.95;100891.62;1858850;77;21473;-88
2022/07/17 01:31:39;;;;;;;3.90;3.30;;;;;;;15.42;80.95;100891.62;1859032;77;21206;-89
2022/07/17 01:34:07;;;;;;;5.28;3.83;;;;;;;15.41;80.77;100895.23;1858855;77;21335;-89
2022/07/17 01:36:35;;;;;;;5.00;3.50;;;;;;;15.40;80.60;100896.18;1858912;77;20885;-91
2022/07/17 01:39:03;;;;;;;5.28;3.98;;;;;;;15.36;80.49;100894.23;1858808;77;21403;-89
2022/07/17 01:41:31;;;;;;;6.35;3.27;;;;;;;15.34;80.29;100900.14;1858772;77;20983;-90
2022/07/17 01:44:00;;;;;;;3.42;3.12;;;;;;;15.30;80.37;100908.77;1858948;77;21218;-90
2022/07/17 01:46:28;;;;;;;7.12;4.03;;;;;;;15.25;80.49;100907.41;1858872;77;21324;-89
2022/07/17 01:48:55;;;;;;;5.25;3.08;;;;;;;15.23;80.72;100915.94;1859012;77;20905;-90
2022/07/17 01:51:23;;;;;;;5.20;3.47;;;;;;;15.18;81.23;100918.92;1858772;77;20893;-90
2022/07/17 01:53:50;;;;;;;3.65;3.10;;;;;;;15.18;81.23;100918.92;1860499;77;20900;-87
2022/07/17 01:56:17;;;;;;;5.17;3.65;;;;;;;15.19;81.58;100916.66;1860055;77;21128;-88
2022/07/17 01:58:45;;;;;;;3.27;2.60;;;;;;;15.19;81.69;100911.37;1858671;77;20921;-88
2022/07/17 02:01:12;;;;;;;7.22;3.50;;;;;;;15.21;81.83;100917.39;1858896;77;21489;-89
2022/07/17 02:03:39;;;;;;;2.72;2.50;;;;;;;15.20;81.65;100910.89;1858747;77;20928;-90
2022/07/17 02:06:06;;;;;;;4.85;2.87;;;;;;;15.19;81.67;100915.34;1858862;76;20946;-89
2022/07/17 02:08:33;;;;;;;3.00;2.70;;;;;;;15.18;81.87;100912.80;1858909;77;21229;-89
2022/07/17 02:11:00;;;;;;;5.78;3.15;;;;;;;15.18;81.94;100910.16;1861276;77;20846;-89
2022/07/17 02:13:27;;;;;;;6.30;3.62;;;;;;;15.20;82.34;100908.25;1862052;77;20969;-89
2022/07/17 02:15:55;;;;;;;4.92;3.45;;;;;;;15.23;82.35;100906.69;1861019;77;20956;-89
2022/07/17 02:18:21;;;;;;;7.35;3.15;;;;;;;15.24;82.40;100907.91;1859272;77;20952;-90
2022/07/17 02:20:49;;;;;;;5.97;3.20;;;;;;;15.30;81.84;100916.70;1859477;76;21242;-88
2022/07/17 02:23:16;;;;;;;10.18;9.28;;;;;;;15.29;81.22;100917.64;1859509;76;20865;-89
2022/07/17 02:25:43;;;;;;;10.75;6.12;;;;;;;15.20;80.36;100914.37;1859037;77;20913;-88
2022/07/17 02:28:10;;;;;;;6.83;3.83;;;;;;;15.20;80.36;100914.37;1859000;77;20873;-90
2022/07/17 02:30:38;;;;;;;6.20;3.92;;;;;;;15.19;80.60;100906.09;1858979;77;20857;-88
2022/07/17 02:33:06;;;;;;;5.65;4.00;;;;;;;15.18;80.97;100901.75;1858710;77;21841;-89
2022/07/17 02:35:34;;;;;;;6.45;3.85;;;;;;;15.23;81.15;100896.12;1858674;76;20945;-88
2022/07/17 02:38:01;;;;;;;6.37;5.37;;;;;;;15.23;81.15;100896.12;1858972;77;20866;-90
2022/07/17 02:40:28;;;;;;;8.10;6.08;;;;;;;15.23;81.27;100886.88;1859170;77;20925;-88
2022/07/17 02:42:55;;;;;;;7.53;5.97;;;;;;;15.27;81.35;100887.01;1859159;77;20952;-89
2022/07/17 02:45:24;;;;;;;7.83;5.90;;;;;;;15.30;81.40;100886.80;1860947;77;21153;-87
2022/07/17 02:47:54;;;;;;;6.62;4.53;;;;;;;15.33;81.36;100887.87;1862029;77;21176;-88
2022/07/17 02:50:21;;;;;;;6.60;3.87;;;;;;;15.35;80.79;100887.28;1860392;77;20925;-89
2022/07/17 02:52:49;;;;;;;8.65;4.17;;;;;;;15.34;80.35;100878.52;1861727;75;20826;-88
2022/07/17 02:55:17;;;;;;;4.97;4.53;;;;;;;15.33;80.13;100882.59;1861710;75;20827;-88
2022/07/17 02:57:46;;;;;;;8.55;5.60;;;;;;;15.31;80.31;100888.47;1861914;77;21187;-88
2022/07/17 03:00:15;;;;;;;10.82;6.37;;;;;;;15.30;80.49;100890.76;1861790;75;20956;-88
2022/07/17 03:02:43;;;;;;;11.20;7.25;;;;;;;15.28;80.55;100884.75;1861764;75;20980;-89
2022/07/17 03:05:11;;;;;;;8.85;5.67;;;;;;;15.31;80.78;100883.18;1861288;75;20897;-89
2022/07/17 03:07:40;;;;;;;9.28;5.30;;;;;;;15.33;81.10;100881.27;1861736;75;20846;-89
2022/07/17 03:10:08;;;;;;;6.55;5.12;;;;;;;15.37;81.04;100876.12;1861262;77;21087;-89
2022/07/17 03:12:35;;;;;;;11.03;6.95;;;;;;;15.41;81.02;100872.28;1861450;77;21178;-89
2022/07/17 03:15:01;;;;;;;15.85;8.58;;;;;;;15.46;81.17;100881.18;1861142;77;20996;-90
2022/07/17 03:17:29;;;;;;;13.20;9.60;;;;;;;15.53;81.30;100879.75;1861304;75;20925;-89
2022/07/17 03:19:55;;;;;;;15.32;9.98;;;;;;;15.58;81.17;100876.26;1861626;75;20905;-89
2022/07/17 03:22:22;;;;;;;13.40;11.00;;;;;;;15.65;81.10;100866.05;1861353;75;21168;-89
2022/07/17 03:24:49;;;;;;;15.45;11.40;;;;;;;15.69;81.08;100868.83;1861401;77;20873;-89
2022/07/17 03:27:17;;;;;;;15.83;10.93;;;;;;;15.73;81.06;100861.05;1860061;77;20854;-90
2022/07/17 03:29:44;;;;;;;12.45;10.00;;;;;;;15.79;81.09;100869.00;1859730;77;20842;-89
2022/07/17 03:32:12;;;;;;;11.48;8.45;;;;;;;15.82;81.09;100868.27;1859807;77;20948;-89
2022/07/17 03:34:39;;;;;;;15.95;7.80;;;;;;;15.87;81.22;100867.41;1860125;77;21231;-89
2022/07/17 03:37:06;;;;;;;9.00;7.80;;;;;;;15.93;81.49;100858.17;1859734;77;20866;-89
2022/07/17 03:39:34;;;;;;;14.85;8.40;;;;;;;15.99;81.58;100852.41;1860235;77;20862;-88
2022/07/17 03:42:01;;;;;;;10.45;8.70;;;;;;;16.07;81.69;100849.13;1860201;77;20862;-90
2022/07/17 03:44:28;;;;;;;14.50;8.40;;;;;;;16.18;81.74;100845.64;1859950;77;21366;-90
2022/07/17 03:46:55;;;;;;;12.55;7.37;;;;;;;16.29;81.71;100841.65;1860041;77;21232;-90
2022/07/17 03:49:22;;;;;;;13.95;7.65;;;;;;;16.39;81.60;100842.59;1860318;77;20933;-89
2022/07/17 03:51:49;;;;;;;15.15;8.10;;;;;;;16.49;81.43;100847.48;1859020;76;20964;-90
2022/07/17 03:54:16;;;;;;;15.63;10.08;;;;;;;16.61;81.15;100848.77;1859158;77;21003;-88
2022/07/17 03:56:43;;;;;;;16.32;10.08;;;;;;;16.71;81.21;100853.20;1860203;77;20929;-89
2022/07/17 03:59:10;;;;;;;16.45;9.75;;;;;;;16.84;80.55;100857.03;1859452;77;21335;-90
2022/07/17 04:01:37;;;;;;;13.48;8.98;;;;;;;17.02;80.30;100855.99;1858834;77;20948;-90
2022/07/17 04:04:05;;;;;;;12.95;9.53;;;;;;;17.22;80.20;100847.69;1858733;77;20862;-89
2022/07/17 04:06:32;;;;;;;15.05;10.70;;;;;;;17.46;80.44;100847.92;1858778;77;21473;-90
2022/07/17 04:08:59;;;;;;;14.58;9.48;;;;;;;17.71;78.74;100849.30;1858859;77;21490;-89
2022/07/17 04:11:26;;;;;;;10.28;8.70;;;;;;;17.99;78.77;100848.60;1858903;77;21983;-89
2022/07/17 04:13:53;;;;;;;11.95;8.53;;;;;;;18.28;77.37;100847.02;1859191;76;20937;-89
2022/07/17 04:16:20;;;;;;;12.60;6.85;;;;;;;18.53;73.82;100846.98;1859141;77;20861;-89
2022/07/17 04:18:47;;;;;;;10.25;6.35;;;;;;;18.77;70.84;100846.58;1858816;77;21343;-90
2022/07/17 04:21:14;;;;;;;6.85;6.10;;;;;;;19.02;68.78;100849.18;1858669;77;20912;-90
2022/07/17 04:23:40;;;;;;;9.13;5.92;;;;;;;19.23;67.90;100840.55;1859246;76;21111;-90
2022/07/17 04:26:07;;;;;;;7.17;5.78;;;;;;;19.46;66.17;100845.53;1858840;77;21402;-89
2022/07/17 04:28:36;;;;;;;5.83;4.22;;;;;;;19.70;64.98;100850.86;1859495;77;20913;-90
2022/07/17 04:31:03;;;;;;;6.92;3.83;;;;;;;20.10;63.34;100853.23;1859340;77;20933;-90
2022/07/17 04:33:30;;;;;;;8.98;4.03;;;;;;;20.64;61.30;100862.66;1858911;77;20866;-89
2022/07/17 04:35:57;;;;;;;4.90;4.50;;;;;;;21.32;59.46;100857.56;1858671;76;21213;-89
2022/07/17 04:38:26;;;;;;;4.97;3.90;;;;;;;22.07;57.61;100856.14;1859024;77;20984;-90
2022/07/17 04:40:53;;;;;;;4.70;4.28;;;;;;;22.79;55.61;100842.28;1862378;77;20968;-91
2022/07/17 04:43:20;;;;;;;8.10;5.50;;;;;;;23.50;53.18;100836.72;1862155;77;20858;-89
2022/07/17 04:45:49;;;;;;;9.03;6.35;;;;;;;24.16;50.89;100827.96;1862275;77;20865;-90
2022/07/17 04:48:16;;;;;;;5.80;5.22;;;;;;;24.76;49.54;100840.66;1862373;77;21209;-89
2022/07/17 04:50:43;;;;;;;7.95;6.85;;;;;;;25.37;48.96;100843.86;1862167;77;20913;-89
2022/07/17 04:54:30;;;;;;;6.78;5.10;;;;;;;26.07;45.82;100841.20;1850506;77;22437;-91
2022/07/17 04:56:59;;;;;;;8.48;5.47;;;;;;;26.16;44.53;100844.09;1815996;77;20797;-91
2022/07/17 04:59:27;;;;;;;5.67;5.08;;;;;;;26.16;44.82;100845.95;1800293;77;21116;-91
2022/07/17 05:01:54;;;;;;;8.63;5.15;;;;;;;26.08;44.81;100837.99;1802442;78;20908;-89
2022/07/17 05:04:21;;;;;;;6.40;5.03;;;;;;;25.97;45.80;100832.62;1797487;79;20916;-89
2022/07/17 05:06:48;;;;;;;4.75;3.95;;;;;;;25.85;45.20;100829.52;1809017;78;21374;-91
2022/07/17 05:09:15;;;;;;;4.10;3.45;;;;;;;25.94;44.21;100828.42;1794330;78;21372;-91
2022/07/17 05:11:43;;;;;;;3.98;3.47;;;;;;;26.22;44.57;100824.53;1804450;79;20904;-88
2022/07/17 05:14:12;;;;;;;6.30;3.95;;;;;;;26.69;42.95;100826.89;1800167;77;20923;-90
2022/07/17 05:16:40;;;;;;;7.33;3.62;;;;;;;27.18;42.77;100827.39;1790664;77;21337;-90
2022/07/17 05:19:07;;;;;;;3.25;2.80;;;;;;;27.65;42.16;100836.09;1809214;77;20926;-91
2022/07/17 05:21:34;;;;;;;7.67;2.77;;;;;;;28.24;40.65;100827.98;1811417;77;20962;-90
2022/07/17 05:24:02;;;;;;;7.33;3.45;;;;;;;28.68;39.77;100836.58;1812041;77;21230;-90
2022/07/17 05:26:29;;;;;;;6.42;3.87;;;;;;;29.04;39.28;100834.84;1811582;78;20888;-91
2022/07/17 05:28:56;;;;;;;4.83;3.92;;;;;;;29.31;38.48;100838.38;1811807;79;20892;-90
2022/07/17 05:31:23;;;;;;;6.17;4.20;;;;;;;29.52;37.97;100828.34;1807609;77;20857;-90
2022/07/17 05:33:50;;;;;;;6.35;3.90;;;;;;;29.52;36.82;100826.46;1797913;77;21121;-91
2022/07/17 05:36:17;;;;;;;3.50;3.20;;;;;;;29.38;37.45;100832.95;1787689;78;21112;-91
2022/07/17 05:38:44;;;;;;;4.95;3.87;;;;;;;29.12;37.67;100830.59;1794950;77;20969;-89
2022/07/17 05:41:11;;;;;;;5.10;3.92;;;;;;;28.82;38.13;100836.92;1796741;77;21588;-91
2022/07/17 05:43:38;;;;;;;6.00;4.42;;;;;;;28.56;38.87;100843.64;1811608;77;20899;-91
2022/07/17 05:46:06;;;;;;;5.12;3.98;;;;;;;28.28;40.10;100844.08;1800458;77;20880;-90
2022/07/17 05:48:33;;;;;;;7.12;4.60;;;;;;;28.17;41.08;100845.16;1806863;77;21559;-90
2022/07/17 05:51:00;;;;;;;7.72;4.45;;;;;;;28.31;41.77;100830.70;1800043;77;20893;-90
2022/07/17 05:53:27;;;;;;;5.58;4.20;;;;;;;28.60;40.67;100830.05;1805572;77;20900;-92
2022/07/17 05:55:54;;;;;;;8.08;3.95;;;;;;;28.98;39.17;100822.70;1800966;78;21001;-91
2022/07/17 05:58:21;;;;;;;5.30;4.85;;;;;;;29.21;38.11;100824.45;1798684;77;20951;-90
2022/07/17 06:00:49;;;;;;;5.92;5.08;;;;;;;29.38;37.76;100822.67;1789762;77;21087;-90
2022/07/17 06:03:16;;;;;;;5.80;5.30;;;;;;;29.50;37.87;100825.02;1811495;79;20930;-88
2022/07/17 06:05:43;;;;;;;9.73;6.55;;;;;;;29.72;37.58;100824.25;1805335;77;20904;-90
2022/07/17 06:08:10;;;;;;;6.72;5.42;;;;;;;29.81;37.03;100826.20;1793527;77;20894;-90
2022/07/17 06:10:39;;;;;;;9.50;5.10;;;;;;;29.91;37.09;100827.94;1812081;79;20813;-90
2022/07/17 06:13:07;;;;;;;6.67;5.42;;;;;;;30.12;37.32;100838.95;1808670;77;21740;-91
2022/07/17 06:15:35;;;;;;;5.65;4.35;;;;;;;30.39;37.36;100838.30;1809854;78;20861;-90
2022/07/17 06:18:03;;;;;;;15.93;5.45;;;;;;;30.51;36.24;100843.34;1811365;79;20975;-91
2022/07/17 06:20:30;;;;;;;4.95;4.55;;;;;;;30.43;36.27;100848.19;1810353;78;20888;-90
2022/07/17 06:22:57;;;;;;;7.90;4.97;;;;;;;30.17;36.01;100841.86;1794070;80;20910;-91
2022/07/17 06:25:24;;;;;;;8.05;6.65;;;;;;;29.86;36.31;100840.75;1796620;77;21210;-90
2022/07/17 06:27:53;;;;;;;9.70;8.80;;;;;;;29.54;37.16;100847.35;1788531;77;20891;-88
2022/07/17 06:30:20;;;;;;;10.85;9.75;;;;;;;29.24;37.56;100841.61;1807467;78;20857;-89
2022/07/17 06:32:46;;;;;;;9.23;8.40;;;;;;;28.94;37.89;100855.49;1810624;77;20868;-90
2022/07/17 06:35:14;;;;;;;11.30;8.20;;;;;;;28.60;38.56;100863.79;1805336;77;20940;-90
2022/07/17 06:37:41;;;;;;;9.25;8.25;;;;;;;28.33;39.55;100865.05;1798096;77;21156;-90
2022/07/17 06:40:09;;;;;;;10.32;7.78;;;;;;;28.05;40.56;100863.27;1786592;77;20900;-91
2022/07/17 06:42:37;;;;;;;9.35;8.20;;;;;;;27.80;41.55;100852.14;1793981;77;20857;-91
2022/07/17 06:45:04;;;;;;;8.23;7.55;;;;;;;27.55;41.87;100859.89;1795789;77;21015;-89
2022/07/17 06:47:31;;;;;;;8.28;7.58;;;;;;;27.31;42.32;100861.70;1813982;79;20962;-90
2022/07/17 06:49:58;;;;;;;12.90;8.20;;;;;;;27.15;42.90;100866.84;1808103;77;21060;-91
2022/07/17 06:52:25;;;;;;;14.18;9.35;;;;;;;27.04;43.59;100871.72;1813856;77;20890;-90
2022/07/17 06:54:52;;;;;;;12.18;8.65;;;;;;;26.98;43.94;100872.48;1808295;77;21009;-91
2022/07/17 06:57:20;;;;;;;11.33;8.53;;;;;;;26.89;44.36;100879.03;1812475;77;20947;-90
2022/07/17 06:59:49;;;;;;;9.80;8.80;;;;;;;26.81;44.47;100874.63;1800205;77;21150;-91
2022/07/17 07:02:16;;;;;;;8.75;7.85;;;;;;;26.71;44.26;100888.91;1797524;77;23270;-90
2022/07/17 07:04:43;;;;;;;8.05;6.95;;;;;;;26.56;44.66;100896.19;1812177;77;21392;-91
2022/07/17 07:07:11;;;;;;;10.63;7.35;;;;;;;26.43;45.21;100900.35;1798316;77;20947;-90
2022/07/17 07:09:38;;;;;;;7.58;6.87;;;;;;;26.30;45.63;100896.16;1789507;78;20950;-90
2022/07/17 07:12:06;;;;;;;7.55;6.65;;;;;;;26.13;46.16;100895.56;1801392;77;20966;-91
2022/07/17 07:14:34;;;;;;;6.42;5.92;;;;;;;25.95;46.55;100887.89;1812544;77;21224;-90
2022/07/17 07:17:02;;;;;;;8.15;6.17;;;;;;;25.77;47.31;100888.23;1803222;77;21157;-90
2022/07/17 07:19:29;;;;;;;6.80;6.20;;;;;;;25.62;48.18;100878.81;1788497;77;20923;-90
2022/07/17 07:21:58;;;;;;;9.45;6.47;;;;;;;25.48;49.11;100866.71;1799583;78;21051;-90
2022/07/17 07:24:25;;;;;;;9.08;6.47;;;;;;;25.35;48.94;100867.37;1809950;77;20869;-91
2022/07/17 07:26:52;;;;;;;6.80;6.10;;;;;;;25.23;49.09;100881.23;1805593;78;21100;-90
2022/07/17 07:29:19;;;;;;;8.13;6.78;;;;;;;25.19;51.00;100887.98;1804996;77;20891;-90
2022/07/17 07:31:47;;;;;;;8.85;6.20;;;;;;;25.32;51.87;100880.63;1799126;77;20896;-91
2022/07/17 07:34:15;;;;;;;7.03;5.72;;;;;;;25.70;52.01;100879.74;1813466;78;20884;-91
2022/07/17 07:36:43;;;;;;;10.55;6.12;;;;;;;26.07;51.35;100886.06;1805074;77;20981;-90
2022/07/17 07:39:09;;;;;;;8.48;5.30;;;;;;;26.52;50.63;100890.83;1793905;77;21170;-91
2022/07/17 07:41:37;;;;;;;5.60;4.72;;;;;;;26.81;49.42;100891.26;1796213;78;20875;-90
2022/07/17 07:44:04;;;;;;;4.75;4.25;;;;;;;27.00;49.07;100901.91;1800492;78;20938;-91
2022/07/17 07:46:31;;;;;;;6.05;4.28;;;;;;;27.04;47.78;100904.54;1812107;79;20829;-90
2022/07/17 07:48:58;;;;;;;8.55;5.87;;;;;;;26.99;47.71;100902.43;1813885;79;20856;-90
2022/07/17 07:51:25;;;;;;;6.05;5.20;;;;;;;26.87;48.00;100907.47;1812906;79;22049;-91
2022/07/17 07:53:53;;;;;;;6.08;4.12;;;;;;;26.78;48.07;100906.45;1806102;77;20928;-91
2022/07/17 07:56:20;;;;;;;5.90;4.40;;;;;;;26.69;48.59;100906.27;1811242;77;21287;-89
2022/07/17 07:58:47;;;;;;;3.90;3.60;;;;;;;26.60;48.82;100906.89;1799975;77;20918;-92
2022/07/17 08:01:15;;;;;;;7.95;5.28;;;;;;;26.55;48.72;100906.61;1788956;77;20997;-91
2022/07/17 08:03:42;;;;;;;13.40;8.85;;;;;;;26.44;48.67;100910.10;1797575;77;21117;-89
2022/07/17 08:06:09;;;;;;;12.63;9.05;;;;;;;26.28;48.34;100913.02;1784757;78;20919;-89
2022/07/17 08:08:36;;;;;;;11.50;8.33;;;;;;;26.12;48.69;100922.10;1791424;77;20860;-91
2022/07/17 08:11:04;;;;;;;13.38;8.75;;;;;;;25.94;48.50;100920.31;1811390;79;21072;-91
2022/07/17 08:13:31;;;;;;;7.70;6.47;;;;;;;25.81;49.26;100913.72;1793172;77;20899;-91
2022/07/17 08:15:58;;;;;;;8.08;6.85;;;;;;;25.65;49.39;100917.91;1806030;77;21186;-90
2022/07/17 08:18:26;;;;;;;11.48;8.35;;;;;;;25.54;49.37;100925.06;1809560;77;20857;-91
2022/07/17 08:20:54;;;;;;;9.28;8.13;;;;;;;25.48;49.87;100932.02;1799515;77;20936;-92
2022/07/17 08:23:21;;;;;;;8.25;7.10;;;;;;;25.44;49.77;100933.40;1811104;79;20888;-92
2022/07/17 08:25:48;;;;;;;10.60;6.40;;;;;;;25.48;50.01;100940.56;1781384;77;20947;-92
2022/07/17 08:28:15;;;;;;;10.03;5.25;;;;;;;25.69;49.97;100939.36;1787038;77;21789;-92
2022/07/17 08:30:42;;;;;;;8.58;4.28;;;;;;;25.87;49.01;100938.17;1803751;77;20893;-92
2022/07/17 08:33:09;;;;;;;5.53;3.92;;;;;;;26.02;48.07;100936.36;1805321;77;20916;-91
2022/07/17 08:35:36;;;;;;;4.75;3.62;;;;;;;26.09;47.74;100937.27;1806531;77;20943;-91
2022/07/17 08:38:03;;;;;;;5.65;2.98;;;;;;;26.14;47.70;100941.57;1810699;77;20853;-89
2022/07/17 08:40:34;;;;;;;6.12;3.08;;;;;;;26.17;47.86;100935.84;1800595;77;21097;-89
2022/07/17 08:43:05;;;;;;;4.10;2.87;;;;;;;26.21;48.10;100931.77;1811565;77;20943;-91
2022/07/17 08:45:34;;;;;;;4.00;2.37;;;;;;;26.23;48.29;100928.86;1805429;78;20841;-91
2022/07/17 08:48:02;;;;;;;3.62;2.95;;;;;;;26.44;48.06;100937.52;1804911;77;20856;-91
2022/07/17 08:50:34;;;;;;;3.42;2.62;;;;;;;26.47;47.62;100936.61;1810851;79;20873;-91
2022/07/17 08:53:02;;;;;;;4.50;2.62;;;;;;;26.46;46.87;100938.16;1811202;79;21181;-91
2022/07/17 08:55:30;;;;;;;4.65;2.10;;;;;;;26.39;47.17;100942.12;1805722;77;20979;-90
2022/07/17 08:57:57;;;;;;;3.37;2.02;;;;;;;26.44;47.21;100953.66;1787463;77;20887;-91
2022/07/17 09:00:25;;;;;;;4.42;2.22;;;;;;;26.57;47.02;100952.50;1794094;77;20977;-89
2022/07/17 09:03:03;;;;;;;3.22;2.87;;;;;;;26.83;47.11;100953.80;1789819;77;20953;-90
2022/07/17 09:05:36;;;;;;;3.75;2.20;;;;;;;27.01;45.68;100956.05;1801817;77;21357;-91
2022/07/17 09:08:06;;;;;;;6.92;2.12;;;;;;;27.05;45.34;100943.88;1776836;79;20920;-92
2022/07/17 09:10:40;;;;;;;3.55;1.98;;;;;;;27.00;44.67;100944.46;1779302;80;20947;-92
2022/07/17 09:13:28;;;;;;;3.77;2.25;;;;;;;26.97;44.69;100953.42;1779341;80;21345;-91
2022/07/17 09:16:10;;;;;;;4.75;2.30;;;;;;;26.84;45.12;100957.66;1767751;79;20962;-90
2022/07/17 09:18:57;;;;;;;5.95;2.10;;;;;;;26.71;44.82;100953.48;1765449;78;20947;-91
2022/07/17 09:21:27;;;;;;;2.65;2.45;;;;;;;26.45;45.34;100965.55;1766092;78;20844;-89
2022/07/17 09:24:02;;;;;;;2.37;2.17;;;;;;;26.21;45.53;100965.86;1763281;79;20911;-90
2022/07/17 09:26:30;;;;;;;5.33;2.27;;;;;;;26.05;45.19;100977.64;1758919;78;20871;-92
2022/07/17 09:28:58;;;;;;;21.25;19.30;;;;;;;25.92;44.99;100984.98;1761443;78;21082;-92
2022/07/17 09:31:29;;;;;;;7.65;6.92;;;;;;;25.77;45.04;100986.30;1774401;78;21892;-91
2022/07/17 09:33:56;;;;;;;8.68;5.28;;;;;;;25.56;45.08;100984.81;1772152;79;21012;-89
2022/07/17 09:36:24;;;;;;;3.40;2.35;;;;;;;25.34;45.33;100982.48;1770999;78;21113;-90
2022/07/17 09:38:56;;;;;;;3.35;2.42;;;;;;;25.14;45.65;100985.60;1763767;78;20856;-90
2022/07/17 09:41:25;;;;;;;3.40;3.10;;;;;;;24.97;46.10;100980.88;1754500;80;20898;-90
2022/07/17 09:43:58;;;;;;;3.87;2.10;;;;;;;24.80;46.59;100989.52;1772130;78;21135;-92
2022/07/17 09:46:28;;;;;;;4.50;4.13;;;;;;;24.67;47.11;100981.20;1772439;78;20912;-90
2022/07/17 09:49:01;;;;;;;4.33;1.92;;;;;;;24.54;46.93;100979.59;1768107;78;20977;-89
2022/07/17 09:51:30;;;;;;;;;;;;;;;24.47;47.23;100975.91;1786254;79;21388;-90
2022/07/17 09:54:01;;;;;;;6.28;4.03;;;;;;;24.45;47.51;100976.08;1757079;78;20153;-90
2022/07/17 09:56:31;;;;;;;4.72;2.12;;;;;;;24.43;47.73;100978.61;1759370;78;21223;-89
2022/07/17 09:59:02;;;;;;;4.58;3.12;;;;;;;24.38;47.59;100983.16;1763624;80;20891;-91
2022/07/17 10:01:30;;;;;;;3.87;2.55;;;;;;;24.32;47.32;100984.70;1765360;78;20856;-92
2022/07/17 10:03:57;;;;;;;3.25;1.85;;;;;;;24.29;47.30;100994.41;1761594;79;20915;-92
2022/07/17 10:06:25;;;;;;;5.17;3.12;;;;;;;24.25;47.54;100992.25;1771312;78;21366;-92
2022/07/17 10:08:53;;;;;;;5.97;2.90;;;;;;;24.19;47.84;100990.59;1776370;79;21223;-89
2022/07/17 10:11:28;;;;;;;5.60;2.92;;;;;;;24.18;48.08;100988.08;1777170;80;20872;-92
2022/07/17 10:14:05;;;;;;;26.05;23.85;;;;;;;24.16;48.03;100988.75;1759303;78;20989;-90
2022/07/17 10:16:33;;;;;;;7.95;4.72;;;;;;;24.18;48.25;100966.13;1773134;78;20955;-91
2022/07/17 10:19:02;;;;;;;8.10;6.20;;;;;;;24.23;48.39;100958.08;1778447;78;21480;-92
2022/07/17 10:21:30;;;;;;;3.17;2.58;;;;;;;24.43;48.29;100972.73;1764573;78;21207;-92
2022/07/17 10:24:03;;;;;;;3.22;2.05;;;;;;;24.65;47.98;100980.55;1779458;80;21377;-90
2022/07/17 10:26:44;;;;;;;2.30;1.70;;;;;;;24.84;47.37;100969.89;1779429;80;21314;-92
2022/07/17 10:29:38;;;;;;;2.83;2.37;;;;;;;24.93;46.90;100967.48;1773493;79;20923;-89
2022/07/17 10:32:16;;;;;;;;;;;;;;;24.94;46.49;100961.59;1776705;78;20954;-90
2022/07/17 10:34:48;;;;;;;4.75;1.85;;;;;;;24.91;46.74;100956.59;1762508;79;21263;-91
2022/07/17 10:37:26;;;;;;;2.98;1.77;;;;;;;24.84;46.90;100959.16;1757821;78;20860;-92
2022/07/17 10:39:59;;;;;;;5.00;1.42;;;;;;;24.81;47.34;100963.52;1772901;79;20961;-92
2022/07/17 10:42:49;;;;;;;3.55;2.02;;;;;;;24.86;47.16;100964.36;1778103;80;20951;-91
2022/07/17 10:45:37;;;;;;;3.10;1.37;;;;;;;24.80;47.66;100972.59;1765803;79;20967;-91
2022/07/17 10:48:19;;;;;;;1.32;1.22;;;;;;;24.70;47.83;100982.70;1771818;80;21160;-91
2022/07/17 10:50:52;;;;;;;2.10;1.90;;;;;;;24.52;48.59;100986.97;1777073;80;20911;-90
2022/07/17 10:53:27;;;;;;;2.72;1.72;;;;;;;24.33;49.12;100988.20;1779156;80;20863;-90
2022/07/17 10:56:03;;;;;;;4.87;1.75;;;;;;;24.16;49.23;100998.96;1778525;78;21381;-89
2022/07/17 10:58:37;;;;;;;2.65;2.05;;;;;;;24.00;49.59;101000.35;1760621;78;20910;-90
2022/07/17 11:01:19;;;;;;;1.80;1.60;;;;;;;23.84;49.82;101003.07;1754272;78;21791;-92
2022/07/17 11:03:56;;;;;;;2.52;1.90;;;;;;;23.62;49.95;101002.72;1772375;79;21002;-92
2022/07/17 11:06:27;;;;;;;1.70;1.22;;;;;;;23.43;50.59;101001.20;1754918;78;21503;-89
2022/07/17 11:08:57;;;;;;;1.80;1.65;;;;;;;23.24;51.08;101000.20;1774015;80;20907;-91
2022/07/17 11:11:45;;;;;;;4.12;2.10;;;;;;;23.08;51.61;101003.70;1771332;78;20900;-90
2022/07/17 11:14:20;;;;;;;3.72;1.62;;;;;;;22.91;52.06;101002.78;1779319;80;22038;-90
2022/07/17 11:17:00;;;;;;;3.17;2.10;;;;;;;22.77;53.24;100988.20;1767861;78;20856;-90
2022/07/17 11:19:39;;;;;;;1.55;1.42;;;;;;;22.61;54.05;100972.09;1759045;78;20911;-90
2022/07/17 11:22:09;;;;;;;2.10;1.82;;;;;;;22.46;54.14;100950.00;1762358;78;20884;-89
2022/07/17 11:24:50;;;;;;;4.12;3.02;;;;;;;22.36;54.76;100958.64;1756858;80;20967;-89
2022/07/17 11:27:24;;;;;;;10.18;2.42;;;;;;;22.25;54.85;100946.39;1773089;78;21887;-90
2022/07/17 11:29:54;;;;;;;4.20;1.90;;;;;;;22.17;54.79;100938.84;1767442;78;20954;-91
2022/07/17 11:32:22;;;;;;;1.72;1.62;;;;;;;22.12;55.55;100936.14;1770170;78;20950;-91